sensor_id;sensor_type;location;lat;lon;timestamp;temperature;humidity
72762;SHT30;60886;55.034;73.150;2024-01-30T00:00:28;-12.22;79.11
72762;SHT30;60886;55.034;73.150;2024-01-30T00:03:29;-12.18;79.35
72762;SHT30;60886;55.034;73.150;2024-01-30T00:06:31;-12.17;79.30
72762;SHT30;60886;55.034;73.150;2024-01-30T00:09:32;-12.12;79.00
72762;SHT30;60886;55.034;73.150;2024-01-30T00:12:34;-12.15;78.81
72762;SHT30;60886;55.034;73.150;2024-01-30T00:15:45;-12.22;78.67
72762;SHT30;60886;55.034;73.150;2024-01-30T00:18:53;-12.28;78.94
72762;SHT30;60886;55.034;73.150;2024-01-30T00:21:55;-12.22;79.28
72762;SHT30;60886;55.034;73.150;2024-01-30T00:24:56;-12.21;78.92
72762;SHT30;60886;55.034;73.150;2024-01-30T00:27:58;-12.45;78.37
72762;SHT30;60886;55.034;73.150;2024-01-30T00:30:59;-12.53;79.04
72762;SHT30;60886;55.034;73.150;2024-01-30T00:34:01;-12.53;79.54
72762;SHT30;60886;55.034;73.150;2024-01-30T00:37:02;-12.49;79.47
72762;SHT30;60886;55.034;73.150;2024-01-30T00:40:05;-12.46;79.11
72762;SHT30;60886;55.034;73.150;2024-01-30T00:43:07;-12.55;78.80
72762;SHT30;60886;55.034;73.150;2024-01-30T00:46:08;-12.57;78.82
72762;SHT30;60886;55.034;73.150;2024-01-30T00:49:10;-12.63;78.99
72762;SHT30;60886;55.034;73.150;2024-01-30T00:52:12;-12.62;79.30
72762;SHT30;60886;55.034;73.150;2024-01-30T00:55:13;-12.53;79.47
72762;SHT30;60886;55.034;73.150;2024-01-30T00:58:15;-12.52;79.34
72762;SHT30;60886;55.034;73.150;2024-01-30T01:01:17;-12.52;79.16
72762;SHT30;60886;55.034;73.150;2024-01-30T01:04:18;-12.52;79.22
72762;SHT30;60886;55.034;73.150;2024-01-30T01:07:22;-12.56;79.09
72762;SHT30;60886;55.034;73.150;2024-01-30T01:10:23;-12.57;79.24
72762;SHT30;60886;55.034;73.150;2024-01-30T01:13:35;-12.63;79.28
72762;SHT30;60886;55.034;73.150;2024-01-30T01:16:36;-12.57;79.50
72762;SHT30;60886;55.034;73.150;2024-01-30T01:19:38;-12.59;79.14
72762;SHT30;60886;55.034;73.150;2024-01-30T01:22:40;-12.63;79.23
72762;SHT30;60886;55.034;73.150;2024-01-30T01:25:45;-12.53;79.37
72762;SHT30;60886;55.034;73.150;2024-01-30T01:28:46;-12.55;79.04
72762;SHT30;60886;55.034;73.150;2024-01-30T01:31:48;-12.49;78.82
72762;SHT30;60886;55.034;73.150;2024-01-30T01:34:49;-12.42;78.68
72762;SHT30;60886;55.034;73.150;2024-01-30T01:37:51;-12.46;78.34
72762;SHT30;60886;55.034;73.150;2024-01-30T01:40:56;-12.45;78.32
72762;SHT30;60886;55.034;73.150;2024-01-30T01:43:58;-12.46;78.12
72762;SHT30;60886;55.034;73.150;2024-01-30T01:47:00;-12.63;77.95
72762;SHT30;60886;55.034;73.150;2024-01-30T01:50:02;-12.72;78.33
72762;SHT30;60886;55.034;73.150;2024-01-30T01:53:06;-12.70;78.41
72762;SHT30;60886;55.034;73.150;2024-01-30T01:56:09;-12.70;78.21
72762;SHT30;60886;55.034;73.150;2024-01-30T01:59:11;-12.70;78.16
72762;SHT30;60886;55.034;73.150;2024-01-30T02:02:19;-12.79;77.60
72762;SHT30;60886;55.034;73.150;2024-01-30T02:05:26;-12.87;77.45
72762;SHT30;60886;55.034;73.150;2024-01-30T02:08:28;-12.90;77.77
72762;SHT30;60886;55.034;73.150;2024-01-30T02:11:30;-12.96;77.60
72762;SHT30;60886;55.034;73.150;2024-01-30T02:14:33;-13.01;77.48
72762;SHT30;60886;55.034;73.150;2024-01-30T02:17:35;-13.21;77.16
72762;SHT30;60886;55.034;73.150;2024-01-30T02:20:45;-13.38;77.31
72762;SHT30;60886;55.034;73.150;2024-01-30T02:23:48;-13.46;77.79
72762;SHT30;60886;55.034;73.150;2024-01-30T02:26:55;-13.55;77.04
72762;SHT30;60886;55.034;73.150;2024-01-30T02:29:57;-13.70;77.00
72762;SHT30;60886;55.034;73.150;2024-01-30T02:32:59;-13.93;77.27
72762;SHT30;60886;55.034;73.150;2024-01-30T02:36:01;-14.31;77.76
72762;SHT30;60886;55.034;73.150;2024-01-30T02:39:03;-14.40;78.87
72762;SHT30;60886;55.034;73.150;2024-01-30T02:42:04;-14.45;79.09
72762;SHT30;60886;55.034;73.150;2024-01-30T02:45:07;-14.48;79.08
72762;SHT30;60886;55.034;73.150;2024-01-30T02:48:09;-14.45;79.34
72762;SHT30;60886;55.034;73.150;2024-01-30T02:51:11;-14.57;79.35
72762;SHT30;60886;55.034;73.150;2024-01-30T02:54:13;-14.68;79.40
72762;SHT30;60886;55.034;73.150;2024-01-30T02:57:14;-14.61;79.76
72762;SHT30;60886;55.034;73.150;2024-01-30T03:00:16;-14.54;79.90
72762;SHT30;60886;55.034;73.150;2024-01-30T03:03:18;-14.67;79.64
72762;SHT30;60886;55.034;73.150;2024-01-30T03:06:19;-14.58;80.08
72762;SHT30;60886;55.034;73.150;2024-01-30T03:09:26;-14.67;79.59
72762;SHT30;60886;55.034;73.150;2024-01-30T03:12:27;-14.60;79.80
72762;SHT30;60886;55.034;73.150;2024-01-30T03:15:29;-14.62;79.65
72762;SHT30;60886;55.034;73.150;2024-01-30T03:18:30;-14.61;79.30
72762;SHT30;60886;55.034;73.150;2024-01-30T03:21:32;-14.67;79.29
72762;SHT30;60886;55.034;73.150;2024-01-30T03:24:33;-14.64;79.44
72762;SHT30;60886;55.034;73.150;2024-01-30T03:27:35;-14.52;79.67
72762;SHT30;60886;55.034;73.150;2024-01-30T03:30:45;-14.41;79.40
72762;SHT30;60886;55.034;73.150;2024-01-30T03:33:46;-14.41;78.79
72762;SHT30;60886;55.034;73.150;2024-01-30T03:36:52;-14.30;78.65
72762;SHT30;60886;55.034;73.150;2024-01-30T03:39:53;-14.36;78.12
72762;SHT30;60886;55.034;73.150;2024-01-30T03:42:55;-14.44;77.76
72762;SHT30;60886;55.034;73.150;2024-01-30T03:46:01;-14.42;78.21
72762;SHT30;60886;55.034;73.150;2024-01-30T03:49:06;-14.47;78.00
72762;SHT30;60886;55.034;73.150;2024-01-30T03:52:08;-14.33;78.50
72762;SHT30;60886;55.034;73.150;2024-01-30T03:55:10;-14.28;78.00
72762;SHT30;60886;55.034;73.150;2024-01-30T03:58:12;-14.26;77.78
72762;SHT30;60886;55.034;73.150;2024-01-30T04:01:16;-14.17;77.50
72762;SHT30;60886;55.034;73.150;2024-01-30T04:04:18;-14.02;77.58
72762;SHT30;60886;55.034;73.150;2024-01-30T04:07:20;-13.96;76.85
72762;SHT30;60886;55.034;73.150;2024-01-30T04:10:25;-13.97;76.61
72762;SHT30;60886;55.034;73.150;2024-01-30T04:13:26;-14.00;76.28
72762;SHT30;60886;55.034;73.150;2024-01-30T04:16:28;-14.10;76.29
72762;SHT30;60886;55.034;73.150;2024-01-30T04:19:30;-13.94;76.67
72762;SHT30;60886;55.034;73.150;2024-01-30T04:22:31;-13.90;76.32
72762;SHT30;60886;55.034;73.150;2024-01-30T04:25:33;-13.94;76.10
72762;SHT30;60886;55.034;73.150;2024-01-30T04:28:34;-13.82;76.55
72762;SHT30;60886;55.034;73.150;2024-01-30T04:31:36;-13.65;76.22
72762;SHT30;60886;55.034;73.150;2024-01-30T04:34:38;-13.65;75.40
72762;SHT30;60886;55.034;73.150;2024-01-30T04:37:40;-13.77;75.02
72762;SHT30;60886;55.034;73.150;2024-01-30T04:40:45;-13.61;75.78
72762;SHT30;60886;55.034;73.150;2024-01-30T04:43:46;-13.67;75.28
72762;SHT30;60886;55.034;73.150;2024-01-30T04:46:49;-13.54;75.60
72762;SHT30;60886;55.034;73.150;2024-01-30T04:49:51;-13.35;75.58
72762;SHT30;60886;55.034;73.150;2024-01-30T04:52:53;-13.25;75.01
72762;SHT30;60886;55.034;73.150;2024-01-30T04:55:54;-13.39;73.83
72762;SHT30;60886;55.034;73.150;2024-01-30T04:58:58;-13.48;74.52
72762;SHT30;60886;55.034;73.150;2024-01-30T05:02:00;-13.54;74.83
72762;SHT30;60886;55.034;73.150;2024-01-30T05:05:01;-13.46;74.81
72762;SHT30;60886;55.034;73.150;2024-01-30T05:08:05;-13.30;74.67
72762;SHT30;60886;55.034;73.150;2024-01-30T05:11:07;-13.11;74.64
72762;SHT30;60886;55.034;73.150;2024-01-30T05:14:08;-13.06;74.22
72762;SHT30;60886;55.034;73.150;2024-01-30T05:17:10;-13.00;73.73
72762;SHT30;60886;55.034;73.150;2024-01-30T05:20:14;-12.77;73.85
72762;SHT30;60886;55.034;73.150;2024-01-30T05:23:15;-12.76;73.24
72762;SHT30;60886;55.034;73.150;2024-01-30T05:26:17;-12.60;73.12
72762;SHT30;60886;55.034;73.150;2024-01-30T05:29:19;-12.79;72.32
72762;SHT30;60886;55.034;73.150;2024-01-30T05:32:20;-12.83;72.65
72762;SHT30;60886;55.034;73.150;2024-01-30T05:35:22;-13.08;72.21
72762;SHT30;60886;55.034;73.150;2024-01-30T05:38:23;-13.28;73.28
72762;SHT30;60886;55.034;73.150;2024-01-30T05:41:25;-13.20;73.77
72762;SHT30;60886;55.034;73.150;2024-01-30T05:44:33;-12.97;74.26
72762;SHT30;60886;55.034;73.150;2024-01-30T05:47:35;-12.77;73.81
72762;SHT30;60886;55.034;73.150;2024-01-30T05:50:45;-12.81;72.86
72762;SHT30;60886;55.034;73.150;2024-01-30T05:53:46;-12.69;72.92
72762;SHT30;60886;55.034;73.150;2024-01-30T05:56:50;-12.45;72.85
72762;SHT30;60886;55.034;73.150;2024-01-30T05:59:52;-12.32;72.52
72762;SHT30;60886;55.034;73.150;2024-01-30T06:02:56;-12.28;71.73
72762;SHT30;60886;55.034;73.150;2024-01-30T06:05:58;-12.17;71.62
72762;SHT30;60886;55.034;73.150;2024-01-30T06:08:59;-12.08;71.62
72762;SHT30;60886;55.034;73.150;2024-01-30T06:12:01;-12.07;71.07
72762;SHT30;60886;55.034;73.150;2024-01-30T06:15:03;-12.10;71.09
72762;SHT30;60886;55.034;73.150;2024-01-30T06:18:07;-12.07;70.80
72762;SHT30;60886;55.034;73.150;2024-01-30T06:21:08;-11.85;71.32
72762;SHT30;60886;55.034;73.150;2024-01-30T06:24:10;-11.98;70.80
72762;SHT30;60886;55.034;73.150;2024-01-30T06:27:11;-12.11;70.94
72762;SHT30;60886;55.034;73.150;2024-01-30T06:30:13;-11.91;71.70
72762;SHT30;60886;55.034;73.150;2024-01-30T06:33:15;-11.84;71.03
72762;SHT30;60886;55.034;73.150;2024-01-30T06:36:17;-11.71;71.18
72762;SHT30;60886;55.034;73.150;2024-01-30T06:39:18;-11.81;70.37
72762;SHT30;60886;55.034;73.150;2024-01-30T06:42:20;-11.74;70.57
72762;SHT30;60886;55.034;73.150;2024-01-30T06:45:22;-11.66;70.64
72762;SHT30;60886;55.034;73.150;2024-01-30T06:48:25;-11.51;70.54
72762;SHT30;60886;55.034;73.150;2024-01-30T06:51:27;-11.49;70.14
72762;SHT30;60886;55.034;73.150;2024-01-30T06:54:29;-11.39;69.94
72762;SHT30;60886;55.034;73.150;2024-01-30T06:57:31;-11.33;70.05
72762;SHT30;60886;55.034;73.150;2024-01-30T07:00:32;-11.33;70.09
72762;SHT30;60886;55.034;73.150;2024-01-30T07:03:34;-11.14;70.28
72762;SHT30;60886;55.034;73.150;2024-01-30T07:06:35;-11.53;69.69
72762;SHT30;60886;55.034;73.150;2024-01-30T07:09:37;-11.32;70.69
72762;SHT30;60886;55.034;73.150;2024-01-30T07:12:38;-11.42;70.52
72762;SHT30;60886;55.034;73.150;2024-01-30T07:15:44;-11.66;70.28
72762;SHT30;60886;55.034;73.150;2024-01-30T07:18:46;-11.84;71.49
72762;SHT30;60886;55.034;73.150;2024-01-30T07:21:48;-11.42;72.30
72762;SHT30;60886;55.034;73.150;2024-01-30T07:24:49;-11.43;70.74
72762;SHT30;60886;55.034;73.150;2024-01-30T07:27:53;-11.43;71.19
72762;SHT30;60886;55.034;73.150;2024-01-30T07:30:54;-11.32;71.01
72762;SHT30;60886;55.034;73.150;2024-01-30T07:33:56;-11.01;70.94
72762;SHT30;60886;55.034;73.150;2024-01-30T07:36:57;-10.82;70.27
72762;SHT30;60886;55.034;73.150;2024-01-30T07:39:59;-10.88;69.26
72762;SHT30;60886;55.034;73.150;2024-01-30T07:43:01;-10.92;69.92
72762;SHT30;60886;55.034;73.150;2024-01-30T07:46:04;-10.98;69.65
72762;SHT30;60886;55.034;73.150;2024-01-30T07:49:07;-10.96;69.97
72762;SHT30;60886;55.034;73.150;2024-01-30T07:52:09;-10.94;69.59
72762;SHT30;60886;55.034;73.150;2024-01-30T07:55:10;-11.02;69.78
72762;SHT30;60886;55.034;73.150;2024-01-30T07:58:18;-10.91;69.68
72762;SHT30;60886;55.034;73.150;2024-01-30T08:01:20;-10.79;69.90
72762;SHT30;60886;55.034;73.150;2024-01-30T08:04:22;-10.71;69.81
72762;SHT30;60886;55.034;73.150;2024-01-30T08:07:23;-10.58;69.96
72762;SHT30;60886;55.034;73.150;2024-01-30T08:10:26;-10.54;69.35
72762;SHT30;60886;55.034;73.150;2024-01-30T08:13:31;-10.51;69.68
72762;SHT30;60886;55.034;73.150;2024-01-30T08:16:33;-10.54;69.17
72762;SHT30;60886;55.034;73.150;2024-01-30T08:19:35;-10.74;68.83
72762;SHT30;60886;55.034;73.150;2024-01-30T08:22:38;-10.69;70.02
72762;SHT30;60886;55.034;73.150;2024-01-30T08:25:44;-10.62;70.29
72762;SHT30;60886;55.034;73.150;2024-01-30T08:28:46;-10.57;69.96
72762;SHT30;60886;55.034;73.150;2024-01-30T08:31:48;-10.67;69.61
72762;SHT30;60886;55.034;73.150;2024-01-30T08:34:49;-10.71;69.92
72762;SHT30;60886;55.034;73.150;2024-01-30T08:37:57;-10.67;69.95
72762;SHT30;60886;55.034;73.150;2024-01-30T08:40:59;-10.67;70.20
72762;SHT30;60886;55.034;73.150;2024-01-30T08:44:00;-10.60;70.52
72762;SHT30;60886;55.034;73.150;2024-01-30T08:47:02;-10.47;70.21
72762;SHT30;60886;55.034;73.150;2024-01-30T08:50:04;-10.44;69.43
72762;SHT30;60886;55.034;73.150;2024-01-30T08:53:07;-10.44;69.77
72762;SHT30;60886;55.034;73.150;2024-01-30T08:56:09;-10.41;70.04
72762;SHT30;60886;55.034;73.150;2024-01-30T08:59:10;-10.38;69.93
72762;SHT30;60886;55.034;73.150;2024-01-30T09:02:13;-10.33;69.85
72762;SHT30;60886;55.034;73.150;2024-01-30T09:05:17;-10.31;69.68
72762;SHT30;60886;55.034;73.150;2024-01-30T09:08:19;-10.31;69.74
72762;SHT30;60886;55.034;73.150;2024-01-30T09:11:20;-10.29;69.80
72762;SHT30;60886;55.034;73.150;2024-01-30T09:14:22;-10.27;69.77
72762;SHT30;60886;55.034;73.150;2024-01-30T09:17:23;-10.38;69.12
72762;SHT30;60886;55.034;73.150;2024-01-30T09:20:25;-10.37;70.06
72762;SHT30;60886;55.034;73.150;2024-01-30T09:23:27;-10.33;69.61
72762;SHT30;60886;55.034;73.150;2024-01-30T09:26:30;-10.43;70.13
72762;SHT30;60886;55.034;73.150;2024-01-30T09:29:32;-10.51;70.35
72762;SHT30;60886;55.034;73.150;2024-01-30T09:32:35;-10.58;70.41
72762;SHT30;60886;55.034;73.150;2024-01-30T09:35:44;-10.61;70.18
72762;SHT30;60886;55.034;73.150;2024-01-30T09:38:46;-10.75;71.04
72762;SHT30;60886;55.034;73.150;2024-01-30T09:44:59;-10.53;71.47
72762;SHT30;60886;55.034;73.150;2024-01-30T09:48:03;-10.60;70.89
72762;SHT30;60886;55.034;73.150;2024-01-30T09:51:05;-10.64;71.29
72762;SHT30;60886;55.034;73.150;2024-01-30T09:54:08;-10.69;71.18
72762;SHT30;60886;55.034;73.150;2024-01-30T09:57:11;-10.69;71.22
72762;SHT30;60886;55.034;73.150;2024-01-30T10:00:16;-10.78;71.33
72762;SHT30;60886;55.034;73.150;2024-01-30T10:03:17;-10.79;71.61
72762;SHT30;60886;55.034;73.150;2024-01-30T10:06:21;-10.78;71.74
72762;SHT30;60886;55.034;73.150;2024-01-30T10:09:24;-10.79;71.48
72762;SHT30;60886;55.034;73.150;2024-01-30T10:12:27;-10.76;71.68
72762;SHT30;60886;55.034;73.150;2024-01-30T10:15:45;-10.78;71.49
72762;SHT30;60886;55.034;73.150;2024-01-30T10:18:46;-10.88;71.15
72762;SHT30;60886;55.034;73.150;2024-01-30T10:21:49;-10.86;72.10
72762;SHT30;60886;55.034;73.150;2024-01-30T10:24:50;-10.78;72.17
72762;SHT30;60886;55.034;73.150;2024-01-30T10:27:55;-10.81;71.71
72762;SHT30;60886;55.034;73.150;2024-01-30T10:31:03;-10.86;71.96
72762;SHT30;60886;55.034;73.150;2024-01-30T10:34:10;-10.85;72.07
72762;SHT30;60886;55.034;73.150;2024-01-30T10:37:15;-10.79;72.39
72762;SHT30;60886;55.034;73.150;2024-01-30T10:40:31;-10.88;72.05
72762;SHT30;60886;55.034;73.150;2024-01-30T10:44:02;-11.15;72.00
72762;SHT30;60886;55.034;73.150;2024-01-30T10:47:12;-11.18;72.48
72762;SHT30;60886;55.034;73.150;2024-01-30T10:50:17;-11.16;72.90
72762;SHT30;60886;55.034;73.150;2024-01-30T10:57:11;-11.11;73.43
72762;SHT30;60886;55.034;73.150;2024-01-30T11:00:18;-11.06;73.37
72762;SHT30;60886;55.034;73.150;2024-01-30T11:03:50;-11.14;73.37
72762;SHT30;60886;55.034;73.150;2024-01-30T11:07:23;-11.16;73.27
72762;SHT30;60886;55.034;73.150;2024-01-30T11:11:58;-11.22;73.64
72762;SHT30;60886;55.034;73.150;2024-01-30T11:18:08;-11.35;74.04
72762;SHT30;60886;55.034;73.150;2024-01-30T11:21:13;-11.30;74.43
72762;SHT30;60886;55.034;73.150;2024-01-30T11:24:15;-11.35;74.25
72762;SHT30;60886;55.034;73.150;2024-01-30T11:27:17;-11.36;74.40
72762;SHT30;60886;55.034;73.150;2024-01-30T11:30:22;-11.32;74.54
72762;SHT30;60886;55.034;73.150;2024-01-30T11:33:28;-11.30;74.25
72762;SHT30;60886;55.034;73.150;2024-01-30T11:36:34;-11.43;73.85
72762;SHT30;60886;55.034;73.150;2024-01-30T11:39:38;-11.44;74.43
72762;SHT30;60886;55.034;73.150;2024-01-30T11:42:45;-11.49;74.50
72762;SHT30;60886;55.034;73.150;2024-01-30T11:45:48;-11.46;74.78
72762;SHT30;60886;55.034;73.150;2024-01-30T11:48:50;-11.43;74.60
72762;SHT30;60886;55.034;73.150;2024-01-30T11:51:58;-11.49;74.38
72762;SHT30;60886;55.034;73.150;2024-01-30T11:55:00;-11.46;74.86
72762;SHT30;60886;55.034;73.150;2024-01-30T11:58:06;-11.43;74.79
72762;SHT30;60886;55.034;73.150;2024-01-30T12:01:08;-11.40;74.66
72762;SHT30;60886;55.034;73.150;2024-01-30T12:04:13;-11.53;74.38
72762;SHT30;60886;55.034;73.150;2024-01-30T12:07:24;-11.51;74.56
72762;SHT30;60886;55.034;73.150;2024-01-30T12:10:26;-11.50;74.60
72762;SHT30;60886;55.034;73.150;2024-01-30T12:13:31;-11.43;75.31
72762;SHT30;60886;55.034;73.150;2024-01-30T12:16:33;-11.56;74.43
72762;SHT30;60886;55.034;73.150;2024-01-30T12:19:34;-11.53;75.19
72762;SHT30;60886;55.034;73.150;2024-01-30T12:22:52;-11.54;74.91
72762;SHT30;60886;55.034;73.150;2024-01-30T12:26:12;-11.61;74.93
72762;SHT30;60886;55.034;73.150;2024-01-30T12:29:17;-11.63;75.08
72762;SHT30;60886;55.034;73.150;2024-01-30T12:32:24;-11.61;75.32
72762;SHT30;60886;55.034;73.150;2024-01-30T12:35:46;-11.64;75.49
72762;SHT30;60886;55.034;73.150;2024-01-30T12:38:50;-11.69;75.41
72762;SHT30;60886;55.034;73.150;2024-01-30T12:41:53;-11.73;75.52
72762;SHT30;60886;55.034;73.150;2024-01-30T12:44:57;-11.75;75.44
72762;SHT30;60886;55.034;73.150;2024-01-30T12:48:19;-11.71;75.80
72762;SHT30;60886;55.034;73.150;2024-01-30T12:51:21;-11.71;75.72
72762;SHT30;60886;55.034;73.150;2024-01-30T12:54:36;-11.71;75.47
72762;SHT30;60886;55.034;73.150;2024-01-30T12:57:44;-11.73;75.79
72762;SHT30;60886;55.034;73.150;2024-01-30T13:00:49;-11.74;75.55
72762;SHT30;60886;55.034;73.150;2024-01-30T13:03:50;-11.80;75.70
72762;SHT30;60886;55.034;73.150;2024-01-30T13:06:53;-11.75;75.83
72762;SHT30;60886;55.034;73.150;2024-01-30T13:09:59;-11.78;75.65
72762;SHT30;60886;55.034;73.150;2024-01-30T13:13:23;-11.91;75.82
72762;SHT30;60886;55.034;73.150;2024-01-30T13:16:25;-11.82;76.10
72762;SHT30;60886;55.034;73.150;2024-01-30T13:19:26;-11.82;75.95
72762;SHT30;60886;55.034;73.150;2024-01-30T13:22:28;-11.95;75.73
72762;SHT30;60886;55.034;73.150;2024-01-30T13:25:30;-11.97;76.36
72762;SHT30;60886;55.034;73.150;2024-01-30T13:28:31;-11.99;76.50
72762;SHT30;60886;55.034;73.150;2024-01-30T13:31:33;-11.94;76.73
72762;SHT30;60886;55.034;73.150;2024-01-30T13:34:38;-11.90;76.54
72762;SHT30;60886;55.034;73.150;2024-01-30T13:37:41;-11.88;76.29
72762;SHT30;60886;55.034;73.150;2024-01-30T13:40:44;-11.88;76.38
72762;SHT30;60886;55.034;73.150;2024-01-30T13:44:02;-11.88;76.63
72762;SHT30;60886;55.034;73.150;2024-01-30T13:47:04;-11.80;76.72
72762;SHT30;60886;55.034;73.150;2024-01-30T13:50:06;-11.81;76.27
72762;SHT30;60886;55.034;73.150;2024-01-30T13:53:09;-11.77;76.50
72762;SHT30;60886;55.034;73.150;2024-01-30T13:56:10;-11.84;75.99
72762;SHT30;60886;55.034;73.150;2024-01-30T13:59:12;-11.87;76.39
72762;SHT30;60886;55.034;73.150;2024-01-30T14:02:13;-11.87;76.56
72762;SHT30;60886;55.034;73.150;2024-01-30T14:05:15;-11.84;76.82
72762;SHT30;60886;55.034;73.150;2024-01-30T14:08:17;-11.75;76.80
72762;SHT30;60886;55.034;73.150;2024-01-30T14:11:18;-11.90;76.23
72762;SHT30;60886;55.034;73.150;2024-01-30T14:14:32;-11.90;76.54
72762;SHT30;60886;55.034;73.150;2024-01-30T14:17:34;-11.98;76.48
72762;SHT30;60886;55.034;73.150;2024-01-30T14:20:44;-11.92;77.14
72762;SHT30;60886;55.034;73.150;2024-01-30T14:23:46;-11.87;77.08
72762;SHT30;60886;55.034;73.150;2024-01-30T14:26:48;-11.84;77.10
72762;SHT30;60886;55.034;73.150;2024-01-30T14:29:57;-11.80;76.66
72762;SHT30;60886;55.034;73.150;2024-01-30T14:32:59;-11.80;76.74
72762;SHT30;60886;55.034;73.150;2024-01-30T14:36:06;-11.81;76.62
72762;SHT30;60886;55.034;73.150;2024-01-30T14:39:09;-11.81;76.69
72762;SHT30;60886;55.034;73.150;2024-01-30T14:42:11;-11.74;76.86
72762;SHT30;60886;55.034;73.150;2024-01-30T14:45:13;-11.81;76.68
72762;SHT30;60886;55.034;73.150;2024-01-30T14:48:15;-11.77;76.94
72762;SHT30;60886;55.034;73.150;2024-01-30T14:51:17;-11.73;76.81
72762;SHT30;60886;55.034;73.150;2024-01-30T14:54:19;-11.73;76.75
72762;SHT30;60886;55.034;73.150;2024-01-30T14:57:20;-11.66;76.79
72762;SHT30;60886;55.034;73.150;2024-01-30T15:00:22;-11.82;76.60
72762;SHT30;60886;55.034;73.150;2024-01-30T15:03:24;-11.75;77.22
72762;SHT30;60886;55.034;73.150;2024-01-30T15:06:25;-11.71;77.63
72762;SHT30;60886;55.034;73.150;2024-01-30T15:09:27;-11.77;77.22
72762;SHT30;60886;55.034;73.150;2024-01-30T15:12:33;-11.88;77.17
72762;SHT30;60886;55.034;73.150;2024-01-30T15:15:44;-12.02;77.56
72762;SHT30;60886;55.034;73.150;2024-01-30T15:18:46;-11.97;78.23
72762;SHT30;60886;55.034;73.150;2024-01-30T15:21:48;-11.90;78.30
72762;SHT30;60886;55.034;73.150;2024-01-30T15:24:50;-11.92;77.65
72762;SHT30;60886;55.034;73.150;2024-01-30T15:27:51;-11.94;77.59
72762;SHT30;60886;55.034;73.150;2024-01-30T15:30:53;-11.91;77.85
72762;SHT30;60886;55.034;73.150;2024-01-30T15:33:55;-11.94;77.96
72762;SHT30;60886;55.034;73.150;2024-01-30T15:37:03;-11.97;78.05
72762;SHT30;60886;55.034;73.150;2024-01-30T15:40:07;-11.85;78.38
72762;SHT30;60886;55.034;73.150;2024-01-30T15:43:11;-11.85;78.14
72762;SHT30;60886;55.034;73.150;2024-01-30T15:46:12;-11.88;77.72
72762;SHT30;60886;55.034;73.150;2024-01-30T15:49:14;-11.85;78.14
72762;SHT30;60886;55.034;73.150;2024-01-30T15:52:16;-11.80;77.72
72762;SHT30;60886;55.034;73.150;2024-01-30T15:55:19;-11.80;77.79
72762;SHT30;60886;55.034;73.150;2024-01-30T15:58:21;-11.78;78.02
72762;SHT30;60886;55.034;73.150;2024-01-30T16:01:23;-11.69;78.19
72762;SHT30;60886;55.034;73.150;2024-01-30T16:04:29;-11.80;77.51
72762;SHT30;60886;55.034;73.150;2024-01-30T16:07:30;-11.71;78.06
72762;SHT30;60886;55.034;73.150;2024-01-30T16:10:34;-11.67;78.16
72762;SHT30;60886;55.034;73.150;2024-01-30T16:13:36;-11.71;77.42
72762;SHT30;60886;55.034;73.150;2024-01-30T16:16:41;-11.77;77.51
72762;SHT30;60886;55.034;73.150;2024-01-30T16:19:47;-11.77;77.70
72762;SHT30;60886;55.034;73.150;2024-01-30T16:22:50;-11.73;77.65
72762;SHT30;60886;55.034;73.150;2024-01-30T16:25:54;-11.69;78.15
72762;SHT30;60886;55.034;73.150;2024-01-30T16:28:56;-11.69;77.49
72762;SHT30;60886;55.034;73.150;2024-01-30T16:31:58;-11.71;77.78
72762;SHT30;60886;55.034;73.150;2024-01-30T16:35:00;-11.77;77.50
72762;SHT30;60886;55.034;73.150;2024-01-30T16:38:03;-11.85;77.58
72762;SHT30;60886;55.034;73.150;2024-01-30T16:41:05;-11.85;77.92
72762;SHT30;60886;55.034;73.150;2024-01-30T16:44:07;-11.82;78.06
72762;SHT30;60886;55.034;73.150;2024-01-30T16:47:09;-11.81;78.33
72762;SHT30;60886;55.034;73.150;2024-01-30T16:50:10;-11.84;78.00
72762;SHT30;60886;55.034;73.150;2024-01-30T16:53:12;-11.94;77.72
72762;SHT30;60886;55.034;73.150;2024-01-30T16:56:14;-11.90;78.24
72762;SHT30;60886;55.034;73.150;2024-01-30T16:59:17;-11.90;77.86
72762;SHT30;60886;55.034;73.150;2024-01-30T17:02:22;-11.97;77.50
72762;SHT30;60886;55.034;73.150;2024-01-30T17:05:23;-12.08;77.44
72762;SHT30;60886;55.034;73.150;2024-01-30T17:08:25;-12.07;77.93
72762;SHT30;60886;55.034;73.150;2024-01-30T17:11:27;-12.08;78.10
72762;SHT30;60886;55.034;73.150;2024-01-30T17:14:35;-12.11;77.90
72762;SHT30;60886;55.034;73.150;2024-01-30T17:17:40;-12.15;78.03
72762;SHT30;60886;55.034;73.150;2024-01-30T17:20:44;-12.12;78.03
72762;SHT30;60886;55.034;73.150;2024-01-30T17:23:46;-12.24;77.73
72762;SHT30;60886;55.034;73.150;2024-01-30T17:26:47;-12.29;78.15
72762;SHT30;60886;55.034;73.150;2024-01-30T17:29:56;-12.32;78.53
72762;SHT30;60886;55.034;73.150;2024-01-30T17:32:59;-12.36;78.22
72762;SHT30;60886;55.034;73.150;2024-01-30T17:36:07;-12.38;78.38
72762;SHT30;60886;55.034;73.150;2024-01-30T17:39:09;-12.55;77.95
72762;SHT30;60886;55.034;73.150;2024-01-30T17:42:11;-12.57;78.65
72762;SHT30;60886;55.034;73.150;2024-01-30T17:45:13;-12.49;78.93
72762;SHT30;60886;55.034;73.150;2024-01-30T17:48:15;-12.63;78.29
72762;SHT30;60886;55.034;73.150;2024-01-30T17:51:24;-12.60;78.50
72762;SHT30;60886;55.034;73.150;2024-01-30T17:54:25;-12.70;78.17
72762;SHT30;60886;55.034;73.150;2024-01-30T17:57:27;-12.67;78.49
72762;SHT30;60886;55.034;73.150;2024-01-30T18:00:29;-12.65;78.61
72762;SHT30;60886;55.034;73.150;2024-01-30T18:03:31;-12.57;78.68
72762;SHT30;60886;55.034;73.150;2024-01-30T18:06:32;-12.59;78.15
72762;SHT30;60886;55.034;73.150;2024-01-30T18:09:34;-12.59;78.01
72762;SHT30;60886;55.034;73.150;2024-01-30T18:12:36;-12.81;77.46
72762;SHT30;60886;55.034;73.150;2024-01-30T18:15:44;-13.01;77.81
72762;SHT30;60886;55.034;73.150;2024-01-30T18:18:46;-13.12;77.91
72762;SHT30;60886;55.034;73.150;2024-01-30T18:21:48;-13.22;78.09
72762;SHT30;60886;55.034;73.150;2024-01-30T18:24:49;-13.38;78.02
72762;SHT30;60886;55.034;73.150;2024-01-30T18:27:51;-13.38;78.37
72762;SHT30;60886;55.034;73.150;2024-01-30T18:30:53;-13.45;78.29
72762;SHT30;60886;55.034;73.150;2024-01-30T18:33:55;-13.51;78.24
72762;SHT30;60886;55.034;73.150;2024-01-30T18:36:57;-13.54;78.30
72762;SHT30;60886;55.034;73.150;2024-01-30T18:40:05;-13.49;78.56
72762;SHT30;60886;55.034;73.150;2024-01-30T18:43:09;-13.51;78.37
72762;SHT30;60886;55.034;73.150;2024-01-30T18:46:12;-13.56;78.05
72762;SHT30;60886;55.034;73.150;2024-01-30T18:49:14;-13.66;78.01
72762;SHT30;60886;55.034;73.150;2024-01-30T18:52:22;-13.62;78.26
72762;SHT30;60886;55.034;73.150;2024-01-30T18:55:23;-13.58;78.60